Galesburg, Iowa
Current Conditions -  °F | °C
As of 5:35 AM on Tuesday 21 Oct 2014 (Local Time) from KTNU Reporting Station
Clear Clear  
Wind Chill:   Ceiling: Unl
Heat Index:   Visibility: NA
Dew Point:   Wind: 7mph
Humidity: 87%   Direction: 50°NE
Pressure: 30.11"   Gusts: NA
Location:  41.587°N, 93.0159°W
Report Text: KTNU 211035Z AUTO 05006KT CLR 06/04 A3011 RMK AO2
Loading
Personal Weather Stations






























Interactive Weather Map
Tropical Storm Tracking
New forecast layout! Learn more

10-Day Weather Forecast

Advertisements
Track Severe Weather on mobile